createdAt,value
2019-04-26T00:01:55.266Z,7.43
2019-04-26T00:04:23.914Z,7.00
2019-04-26T00:06:52.330Z,8.33
2019-04-26T00:09:22.651Z,7.87
2019-04-26T00:12:04.670Z,7.73
2019-04-26T00:14:46.691Z,7.63
2019-04-26T00:17:17.512Z,7.60
2019-04-26T00:19:46.381Z,7.67
2019-04-26T00:22:15.297Z,7.87
2019-04-26T00:24:43.783Z,7.73
2019-04-26T00:27:12.726Z,7.80
2019-04-26T00:29:41.119Z,8.03
2019-04-26T00:32:09.503Z,8.03
2019-04-26T00:34:37.928Z,8.10
2019-04-26T00:37:06.309Z,7.20
2019-04-26T00:39:34.587Z,6.90
2019-04-26T00:42:02.971Z,7.20
2019-04-26T00:44:31.314Z,7.40
2019-04-26T00:46:59.624Z,7.73
2019-04-26T00:49:27.902Z,6.73
2019-04-26T00:51:56.216Z,7.57
2019-04-26T00:54:24.567Z,6.90
2019-04-26T00:56:52.947Z,7.40
2019-04-26T00:59:21.246Z,6.03
2019-04-26T01:01:51.184Z,7.53
2019-04-26T01:04:19.450Z,6.80
2019-04-26T01:06:49.394Z,7.17
2019-04-26T01:09:19.436Z,7.23
2019-04-26T01:11:47.958Z,7.30
2019-04-26T01:14:16.626Z,7.00
2019-04-26T01:16:46.070Z,7.00
2019-04-26T01:19:14.449Z,7.27
2019-04-26T01:21:49.127Z,7.10
2019-04-26T01:24:18.396Z,7.10
2019-04-26T01:26:47.465Z,6.90
2019-04-26T01:29:15.947Z,7.93
2019-04-26T01:32:02.730Z,7.30
2019-04-26T01:34:31.034Z,7.00
2019-04-26T01:36:59.306Z,6.80
2019-04-26T01:39:27.984Z,6.97
2019-04-26T01:41:57.971Z,6.37
2019-04-26T01:44:30.814Z,6.93
2019-04-26T01:46:59.171Z,6.83
2019-04-26T01:49:28.285Z,6.60
2019-04-26T01:52:05.850Z,7.27
2019-04-26T01:54:40.254Z,7.20
2019-04-26T01:57:08.636Z,7.47
2019-04-26T01:59:38.671Z,7.20
2019-04-26T02:02:25.664Z,7.13
2019-04-26T02:04:58.239Z,7.37
2019-04-26T02:07:31.058Z,7.30
2019-04-26T02:09:59.340Z,7.53
2019-04-26T02:12:28.607Z,7.67
2019-04-26T02:14:57.161Z,7.50
2019-04-26T02:17:25.586Z,5.97
2019-04-26T02:19:53.976Z,7.00
2019-04-26T02:22:32.857Z,7.60
2019-04-26T02:25:01.132Z,7.70
2019-04-26T02:27:30.614Z,7.33
2019-04-26T02:29:59.899Z,8.13
2019-04-26T02:32:29.603Z,7.23
2019-04-26T02:34:58.314Z,7.50
2019-04-26T02:37:27.007Z,7.77
2019-04-26T02:39:56.708Z,7.47
2019-04-26T02:42:36.257Z,7.37
2019-04-26T02:45:28.917Z,8.00
2019-04-26T02:48:15.556Z,7.37
2019-04-26T02:50:55.287Z,6.97
2019-04-26T02:53:37.390Z,6.67
2019-04-26T02:56:12.119Z,8.07
2019-04-26T02:58:43.630Z,8.13
2019-04-26T03:01:12.115Z,8.30
2019-04-26T03:03:40.426Z,7.57
2019-04-26T03:06:08.804Z,7.97
2019-04-26T03:08:38.955Z,7.27
2019-04-26T03:11:10.631Z,7.33
2019-04-26T03:13:40.927Z,8.20
2019-04-26T03:16:31.403Z,7.93
2019-04-26T03:19:04.727Z,7.73
2019-04-26T03:22:06.786Z,8.10
2019-04-26T03:24:56.224Z,7.60
2019-04-26T03:27:27.986Z,7.80
2019-04-26T03:30:18.601Z,8.03
2019-04-26T03:32:50.378Z,7.70
2019-04-26T03:35:17.813Z,8.53
2019-04-26T03:38:08.841Z,7.77
2019-04-26T03:40:56.272Z,8.33
2019-04-26T03:43:44.519Z,7.43
2019-04-26T03:46:31.319Z,7.60
2019-04-26T03:49:25.675Z,7.93
2019-04-26T03:52:23.631Z,8.13
2019-04-26T03:54:58.114Z,9.13
2019-04-26T03:57:52.403Z,8.83
2019-04-26T04:00:28.003Z,9.10
2019-04-26T04:03:09.255Z,8.67
2019-04-26T04:05:47.800Z,9.70
2019-04-26T04:08:28.684Z,9.47
2019-04-26T04:11:00.279Z,9.10
2019-04-26T04:13:42.507Z,8.40
2019-04-26T04:16:27.892Z,8.90
2019-04-26T04:19:05.033Z,9.27
2019-04-26T04:21:44.505Z,9.07
2019-04-26T04:24:14.598Z,8.10
2019-04-26T04:27:10.509Z,7.97
2019-04-26T04:29:55.207Z,8.50
2019-04-26T04:32:24.571Z,8.07
2019-04-26T04:34:54.173Z,10.23
2019-04-26T04:37:22.599Z,9.00
2019-04-26T04:40:07.981Z,9.40
2019-04-26T04:42:45.739Z,10.27
2019-04-26T04:45:34.379Z,9.53
2019-04-26T04:48:16.222Z,9.37
2019-04-26T04:51:19.547Z,9.10
2019-04-26T04:53:53.712Z,9.10
2019-04-26T04:56:54.366Z,8.67
2019-04-26T04:59:48.122Z,9.23
2019-04-26T05:02:36.023Z,8.53
2019-04-26T05:05:18.171Z,9.17
2019-04-26T05:08:05.218Z,9.03
2019-04-26T05:10:31.516Z,10.70
2019-04-26T05:13:09.147Z,9.97
2019-04-26T05:16:17.142Z,9.77
2019-04-26T05:19:29.664Z,9.40
2019-04-26T05:22:26.290Z,9.43
2019-04-26T05:25:17.578Z,8.30
2019-04-26T05:27:59.677Z,8.33
2019-04-26T05:30:32.969Z,8.23
2019-04-26T05:33:07.719Z,8.83
2019-04-26T05:35:58.893Z,8.70
2019-04-26T05:38:39.114Z,8.40
2019-04-26T05:41:34.487Z,8.63
2019-04-26T05:44:22.780Z,8.70
2019-04-26T05:46:55.996Z,8.97
2019-04-26T05:50:06.790Z,9.43
2019-04-26T05:53:02.789Z,8.20
2019-04-26T05:56:12.081Z,8.20
2019-04-26T05:59:03.059Z,7.30
2019-04-26T06:02:16.075Z,7.80
2019-04-26T06:04:55.209Z,6.77
2019-04-26T06:07:58.919Z,7.87
2019-04-26T06:10:31.846Z,7.37
2019-04-26T06:13:22.772Z,6.93
2019-04-26T06:16:02.427Z,6.83
2019-04-26T06:18:59.588Z,6.87
2019-04-26T06:21:43.299Z,6.10
2019-04-26T06:24:26.511Z,6.80
2019-04-26T06:27:17.867Z,7.37
2019-04-26T06:29:52.568Z,7.90
2019-04-26T06:32:55.927Z,7.43
2019-04-26T06:35:16.743Z,8.13
2019-04-26T06:38:06.215Z,6.83
2019-04-26T06:40:53.475Z,7.00
2019-04-26T06:43:26.523Z,7.00
2019-04-26T06:46:11.886Z,6.20
2019-04-26T06:49:07.319Z,6.00
2019-04-26T06:51:39.091Z,5.90
2019-04-26T06:54:21.207Z,7.30
2019-04-26T06:57:28.047Z,6.23
2019-04-26T07:00:13.055Z,6.33
2019-04-26T07:03:19.670Z,6.97
2019-04-26T07:05:51.258Z,6.53
2019-04-26T07:08:37.620Z,6.57
2019-04-26T07:11:13.623Z,6.07
2019-04-26T07:13:59.284Z,6.90
2019-04-26T07:16:54.331Z,6.53
2019-04-26T07:19:30.552Z,6.83
2019-04-26T07:22:35.549Z,7.87
2019-04-26T07:25:45.268Z,7.13
2019-04-26T07:28:36.286Z,6.67
2019-04-26T07:31:28.754Z,6.17
2019-04-26T07:34:16.735Z,6.00
2019-04-26T07:37:09.361Z,5.70
2019-04-26T07:40:12.818Z,6.60
2019-04-26T07:43:26.862Z,6.73
2019-04-26T07:46:01.368Z,5.87
2019-04-26T07:49:08.069Z,7.07
2019-04-26T07:52:10.528Z,6.80
2019-04-26T07:55:06.658Z,6.60
2019-04-26T07:58:11.678Z,6.67
2019-04-26T08:00:45.349Z,6.63
2019-04-26T08:03:27.422Z,7.03
2019-04-26T08:06:00.931Z,7.07
2019-04-26T08:08:32.489Z,6.43
2019-04-26T08:11:12.929Z,6.13
2019-04-26T08:13:44.766Z,6.20
2019-04-26T08:16:17.410Z,5.93
2019-04-26T08:19:01.646Z,7.40
2019-04-26T08:21:32.009Z,6.17
2019-04-26T08:24:11.437Z,6.40
2019-04-26T08:26:39.755Z,6.30
2019-04-26T08:29:08.488Z,7.13
2019-04-26T08:31:38.387Z,7.17
2019-04-26T08:34:08.694Z,6.57
2019-04-26T08:36:39.094Z,5.93
2019-04-26T08:39:16.287Z,6.53
2019-04-26T08:41:46.238Z,6.17
2019-04-26T08:44:19.217Z,6.33
2019-04-26T08:46:57.982Z,8.77
2019-04-26T08:49:27.902Z,6.53
2019-04-26T08:51:57.505Z,6.63
2019-04-26T08:54:27.560Z,7.07
2019-04-26T08:56:59.151Z,6.73
2019-04-26T08:59:38.478Z,7.10
2019-04-26T09:02:18.052Z,6.67
2019-04-26T09:04:50.782Z,7.43
2019-04-26T09:07:20.875Z,6.80
2019-04-26T09:09:57.123Z,6.80
2019-04-26T09:12:23.381Z,7.10
2019-04-26T09:14:52.640Z,6.80
2019-04-26T09:17:20.927Z,6.40
2019-04-26T09:19:49.199Z,6.50
2019-04-26T09:22:35.603Z,6.13
2019-04-26T09:25:22.815Z,6.77
2019-04-26T09:27:55.700Z,6.53
2019-04-26T09:30:34.376Z,6.00
2019-04-26T09:33:05.987Z,6.07
2019-04-26T09:35:34.393Z,5.53
2019-04-26T09:38:02.767Z,6.03
2019-04-26T09:40:31.084Z,5.57
2019-04-26T09:43:03.976Z,5.60
2019-04-26T09:45:43.085Z,5.43
2019-04-26T09:48:13.048Z,5.37
2019-04-26T09:50:45.716Z,5.43
2019-04-26T09:53:14.460Z,5.80
2019-04-26T09:55:42.918Z,5.83
2019-04-26T09:58:11.371Z,5.33
2019-04-26T10:00:39.822Z,5.07
2019-04-26T10:03:09.379Z,5.70
2019-04-26T10:05:38.140Z,5.10
2019-04-26T10:08:08.249Z,5.47
2019-04-26T10:10:36.590Z,5.77
2019-04-26T10:13:06.611Z,5.37
2019-04-26T10:15:38.887Z,5.20
2019-04-26T10:18:08.167Z,5.23
2019-04-26T10:20:36.710Z,5.50
2019-04-26T10:23:05.463Z,4.90
2019-04-26T10:25:33.875Z,4.90
2019-04-26T10:28:02.156Z,5.17
2019-04-26T10:30:30.527Z,5.83
2019-04-26T10:33:02.285Z,5.03
2019-04-26T10:35:29.022Z,5.43
2019-04-26T10:37:57.513Z,5.77
2019-04-26T10:40:35.301Z,5.60
2019-04-26T10:42:55.886Z,4.93
2019-04-26T10:45:24.622Z,5.30
2019-04-26T10:47:53.052Z,5.07
2019-04-26T10:50:21.432Z,5.17
2019-04-26T10:52:54.407Z,5.20
2019-04-26T10:55:23.032Z,5.33
2019-04-26T10:57:53.187Z,5.00
2019-04-26T11:00:39.400Z,5.57
2019-04-26T11:03:07.846Z,5.50
2019-04-26T11:05:36.398Z,4.93
2019-04-26T11:08:05.378Z,5.37
2019-04-26T11:10:33.771Z,5.40
2019-04-26T11:13:02.068Z,5.73
2019-04-26T11:15:32.777Z,5.67
2019-04-26T11:18:00.484Z,5.10
2019-04-26T11:20:28.819Z,5.58
2019-04-26T11:22:57.201Z,5.07
2019-04-26T11:25:28.177Z,5.15
2019-04-26T11:27:55.512Z,5.10
2019-04-26T11:30:23.809Z,5.22
2019-04-26T11:32:52.206Z,4.90
2019-04-26T11:35:20.610Z,4.78
2019-04-26T11:37:50.690Z,5.00
2019-04-26T11:40:18.923Z,5.58
2019-04-26T11:42:47.368Z,4.45
2019-04-26T11:45:16.204Z,5.58
2019-04-26T11:47:55.503Z,5.08
2019-04-26T11:50:16.098Z,4.87
2019-04-26T11:52:44.974Z,4.75
2019-04-26T11:55:14.889Z,5.03
2019-04-26T11:57:43.789Z,5.12
2019-04-26T12:00:15.116Z,4.40
2019-04-26T12:02:46.385Z,4.92
2019-04-26T12:05:21.396Z,5.22
2019-04-26T12:07:51.385Z,5.00
2019-04-26T12:10:19.741Z,5.15
2019-04-26T12:12:51.742Z,5.60
2019-04-26T12:15:29.684Z,4.87
2019-04-26T12:17:58.090Z,5.60
2019-04-26T12:20:18.218Z,5.20
2019-04-26T12:22:46.499Z,4.65
2019-04-26T12:25:14.875Z,4.85
2019-04-26T12:27:43.271Z,5.30
2019-04-26T12:30:11.772Z,5.28
2019-04-26T12:32:40.114Z,5.17
2019-04-26T12:35:08.493Z,5.12
2019-04-26T12:37:36.768Z,5.10
2019-04-26T12:40:07.124Z,4.90
2019-04-26T12:42:36.072Z,5.37
2019-04-26T12:45:06.220Z,4.83
2019-04-26T12:47:42.115Z,5.05
2019-04-26T12:50:10.495Z,4.90
2019-04-26T12:52:38.943Z,5.90
2019-04-26T12:55:07.371Z,5.05
2019-04-26T12:57:36.579Z,4.78
2019-04-26T13:00:06.886Z,4.80
2019-04-26T13:02:35.312Z,4.60
2019-04-26T13:05:04.246Z,4.80
2019-04-26T13:07:32.634Z,5.08
2019-04-26T13:10:18.488Z,4.72
2019-04-26T13:12:48.459Z,4.50
2019-04-26T13:15:58.742Z,5.08
2019-04-26T13:18:27.231Z,4.62
2019-04-26T13:20:58.684Z,4.50
2019-04-26T13:23:29.771Z,4.95
2019-04-26T13:25:59.688Z,4.90
2019-04-26T13:28:25.799Z,4.58
2019-04-26T13:30:54.246Z,4.80
2019-04-26T13:33:23.294Z,4.72
2019-04-26T13:36:02.530Z,4.75
2019-04-26T13:38:22.640Z,5.10
2019-04-26T13:40:50.913Z,4.75
2019-04-26T13:43:22.790Z,4.92
2019-04-26T13:45:56.570Z,5.37
2019-04-26T13:48:29.302Z,4.62
2019-04-26T13:51:01.297Z,4.75
2019-04-26T13:53:29.297Z,5.47
2019-04-26T13:55:58.252Z,5.00
2019-04-26T13:58:27.604Z,4.87
2019-04-26T14:00:56.035Z,5.50
2019-04-26T14:03:27.022Z,5.05
2019-04-26T14:05:54.359Z,5.22
2019-04-26T14:08:22.704Z,5.30
2019-04-26T14:10:51.382Z,4.65
2019-04-26T14:13:20.740Z,5.22
2019-04-26T14:15:52.050Z,4.58
2019-04-26T14:18:20.026Z,5.25
2019-04-26T14:20:48.542Z,4.50
2019-04-26T14:23:26.975Z,5.58
2019-04-26T14:26:01.205Z,4.95
2019-04-26T14:28:29.779Z,5.15
2019-04-26T14:30:58.156Z,5.22
2019-04-26T14:33:27.032Z,5.15
2019-04-26T14:35:56.546Z,4.67
2019-04-26T14:38:28.082Z,5.28
2019-04-26T14:41:03.775Z,5.55
2019-04-26T14:43:25.060Z,5.15
2019-04-26T14:45:56.176Z,5.00
2019-04-26T14:48:35.433Z,5.20
2019-04-26T14:50:53.666Z,5.40
2019-04-26T14:53:22.050Z,5.42
2019-04-26T14:55:51.369Z,5.45
2019-04-26T14:58:23.853Z,5.40
2019-04-26T15:01:04.628Z,5.33
2019-04-26T15:03:34.710Z,6.08
2019-04-26T15:06:04.949Z,5.25
2019-04-26T15:08:34.104Z,6.08
2019-04-26T15:11:04.362Z,6.50
2019-04-26T15:13:36.218Z,5.30
2019-04-26T15:16:03.911Z,5.58
2019-04-26T15:18:33.840Z,6.37
2019-04-26T15:21:04.226Z,6.15
2019-04-26T15:23:33.001Z,6.00
2019-04-26T15:26:03.089Z,5.87
2019-04-26T15:28:33.133Z,5.87
2019-04-26T15:31:02.286Z,5.17
2019-04-26T15:33:32.387Z,5.83
2019-04-26T15:36:02.234Z,5.50
2019-04-26T15:38:35.145Z,5.33
2019-04-26T15:41:18.728Z,5.80
2019-04-26T15:43:57.924Z,6.35
2019-04-26T15:46:42.549Z,5.62
2019-04-26T15:49:12.531Z,5.95
2019-04-26T15:51:42.665Z,5.90
2019-04-26T15:54:11.267Z,5.90
2019-04-26T15:56:39.555Z,5.17
2019-04-26T15:59:07.854Z,6.28
2019-04-26T16:01:36.252Z,5.90
2019-04-26T16:04:06.583Z,6.33
2019-04-26T16:06:37.380Z,6.80
2019-04-26T16:09:07.781Z,5.95
2019-04-26T16:11:36.402Z,6.22
2019-04-26T16:14:04.862Z,5.70
2019-04-26T16:16:34.654Z,6.15
2019-04-26T16:19:03.079Z,5.58
2019-04-26T16:21:32.419Z,5.95
2019-04-26T16:24:02.659Z,6.45
2019-04-26T16:26:32.792Z,6.03
2019-04-26T16:29:05.757Z,6.03
2019-04-26T16:31:35.743Z,6.40
2019-04-26T16:34:10.460Z,5.90
2019-04-26T16:36:36.640Z,5.97
2019-04-26T16:39:10.247Z,5.80
2019-04-26T16:41:38.894Z,6.17
2019-04-26T16:44:07.247Z,6.30
2019-04-26T16:46:35.702Z,6.30
2019-04-26T16:49:05.746Z,5.47
2019-04-26T16:51:35.156Z,6.20
2019-04-26T16:54:08.604Z,6.40
2019-04-26T16:56:35.991Z,6.20
2019-04-26T16:59:03.788Z,6.00
2019-04-26T17:01:33.399Z,6.80
2019-04-26T17:04:04.711Z,6.50
2019-04-26T17:06:31.951Z,6.20
2019-04-26T17:09:01.576Z,6.00
2019-04-26T17:11:34.181Z,6.77
2019-04-26T17:14:04.376Z,6.90
2019-04-26T17:16:34.723Z,6.63
2019-04-26T17:19:00.747Z,6.60
2019-04-26T17:21:30.859Z,6.53
2019-04-26T17:24:09.530Z,6.17
2019-04-26T17:26:38.408Z,6.27
2019-04-26T17:29:06.830Z,6.00
2019-04-26T17:31:35.338Z,6.40
2019-04-26T17:34:05.156Z,6.63
2019-04-26T17:36:34.521Z,5.63
2019-04-26T17:39:04.483Z,6.80
2019-04-26T17:41:33.347Z,6.73
2019-04-26T17:44:07.955Z,6.30
2019-04-26T17:46:32.624Z,6.67
2019-04-26T17:49:01.087Z,6.27
2019-04-26T17:51:31.279Z,6.20
2019-04-26T17:54:26.000Z,6.50
2019-04-26T17:56:31.442Z,7.50
2019-04-26T17:59:03.134Z,9.17
2019-04-26T18:01:43.001Z,7.30
2019-04-26T18:04:00.325Z,7.47
2019-04-26T18:06:29.807Z,7.97
2019-04-26T18:08:58.585Z,7.17
2019-04-26T18:11:27.096Z,7.77
2019-04-26T18:13:55.535Z,7.17
2019-04-26T18:16:29.253Z,7.70
2019-04-26T18:19:05.169Z,7.53
2019-04-26T18:21:38.011Z,6.60
2019-04-26T18:24:06.542Z,7.37
2019-04-26T18:26:34.896Z,7.07
2019-04-26T18:29:03.840Z,7.07
2019-04-26T18:31:33.671Z,7.10
2019-04-26T18:34:04.032Z,7.37
2019-04-26T18:36:33.283Z,6.70
2019-04-26T18:39:01.727Z,7.33
2019-04-26T18:41:30.107Z,7.37
2019-04-26T18:43:59.752Z,7.33
2019-04-26T18:46:40.035Z,7.40
2019-04-26T18:49:05.937Z,7.70
2019-04-26T18:51:34.311Z,7.37
2019-04-26T18:54:23.428Z,6.70
2019-04-26T18:56:55.166Z,7.10
2019-04-26T18:59:23.598Z,7.60
2019-04-26T19:01:53.467Z,6.63
2019-04-26T19:04:23.505Z,7.90
2019-04-26T19:06:52.163Z,8.83
2019-04-26T19:09:22.153Z,8.20
2019-04-26T19:11:52.529Z,8.47
2019-04-26T19:14:25.130Z,7.87
2019-04-26T19:17:07.213Z,8.23
2019-04-26T19:19:45.805Z,9.07
2019-04-26T19:22:16.988Z,8.50
2019-04-26T19:24:44.556Z,9.27
2019-04-26T19:27:12.845Z,8.70
2019-04-26T19:29:43.177Z,8.27
2019-04-26T19:32:11.873Z,8.80
2019-04-26T19:34:42.106Z,9.47
2019-04-26T19:37:10.583Z,8.30
2019-04-26T19:39:38.858Z,9.40
2019-04-26T19:42:07.475Z,9.20
2019-04-26T19:44:35.831Z,8.40
2019-04-26T19:47:06.903Z,8.43
2019-04-26T19:49:54.026Z,9.03
2019-04-26T19:52:39.573Z,10.53
2019-04-26T19:55:12.287Z,10.17
2019-04-26T19:57:42.683Z,8.00
2019-04-26T20:00:11.308Z,7.10
2019-04-26T20:02:39.584Z,7.27
2019-04-26T20:05:07.991Z,6.53
2019-04-26T20:07:36.434Z,6.10
2019-04-26T20:10:05.759Z,5.97
2019-04-26T20:12:37.975Z,4.80
2019-04-26T20:15:07.750Z,4.60
2019-04-26T20:17:36.066Z,4.93
2019-04-26T20:20:16.838Z,4.97
2019-04-26T20:22:34.547Z,5.20
2019-04-26T20:25:02.914Z,4.57
2019-04-26T20:27:32.323Z,4.87
2019-04-26T20:30:02.395Z,4.73
2019-04-26T20:32:32.559Z,4.83
2019-04-26T20:35:05.817Z,4.20
2019-04-26T20:37:34.213Z,3.80
2019-04-26T20:40:16.304Z,4.20
2019-04-26T20:42:32.595Z,4.30
2019-04-26T20:45:04.489Z,4.20
2019-04-26T20:47:32.062Z,3.50
2019-04-26T20:50:02.789Z,3.27
2019-04-26T20:52:32.069Z,2.60
2019-04-26T20:55:00.571Z,2.90
2019-04-26T20:57:31.326Z,3.00
2019-04-26T21:00:03.334Z,2.73
2019-04-26T21:02:29.327Z,3.60
2019-04-26T21:04:57.660Z,3.10
2019-04-26T21:07:25.943Z,2.70
2019-04-26T21:09:54.320Z,3.13
2019-04-26T21:12:22.658Z,3.00
2019-04-26T21:14:51.706Z,2.77
2019-04-26T21:17:26.373Z,3.10
2019-04-26T21:19:55.012Z,2.67
2019-04-26T21:22:25.458Z,2.77
2019-04-26T21:24:55.383Z,3.20
2019-04-26T21:27:36.363Z,2.43
2019-04-26T21:30:06.318Z,2.97
2019-04-26T21:32:45.636Z,2.80
2019-04-26T21:35:15.734Z,2.53
2019-04-26T21:37:49.527Z,3.03
2019-04-26T21:40:35.835Z,2.90
2019-04-26T21:43:04.104Z,3.30
2019-04-26T21:45:33.934Z,3.10
2019-04-26T21:48:02.650Z,3.20
2019-04-26T21:50:36.069Z,3.20
2019-04-26T21:53:03.413Z,2.97
2019-04-26T21:55:38.379Z,2.87
2019-04-26T21:58:03.023Z,3.40
2019-04-26T22:00:34.128Z,3.20
2019-04-26T22:03:03.765Z,3.03
2019-04-26T22:05:35.112Z,3.00
2019-04-26T22:08:03.763Z,3.10
2019-04-26T22:10:34.021Z,3.20
2019-04-26T22:13:05.641Z,3.13
2019-04-26T22:15:37.491Z,3.23
2019-04-26T22:18:05.963Z,2.93
2019-04-26T22:20:35.955Z,3.53
2019-04-26T22:23:25.375Z,3.23
2019-04-26T22:25:56.108Z,3.40
2019-04-26T22:28:26.954Z,3.03
2019-04-26T22:30:59.316Z,3.30
2019-04-26T22:33:27.452Z,3.63
2019-04-26T22:35:58.529Z,3.50
2019-04-26T22:38:26.873Z,3.30
2019-04-26T22:40:56.230Z,3.30
2019-04-26T22:43:38.271Z,3.77
2019-04-26T22:46:28.400Z,4.10
2019-04-26T22:49:01.439Z,3.27
2019-04-26T22:51:28.553Z,3.93
2019-04-26T22:53:57.513Z,2.87
2019-04-26T22:56:26.258Z,4.00
2019-04-26T22:58:54.642Z,3.67
2019-04-26T23:01:23.890Z,3.93
2019-04-26T23:03:53.255Z,4.37
2019-04-26T23:06:23.547Z,4.00
2019-04-26T23:08:53.680Z,4.77
2019-04-26T23:11:23.116Z,4.30
2019-04-26T23:14:05.803Z,4.57
2019-04-26T23:16:40.447Z,4.53
2019-04-26T23:19:15.308Z,5.00
2019-04-26T23:21:52.929Z,4.37
2019-04-26T23:24:18.901Z,4.70
2019-04-26T23:26:47.464Z,5.00
2019-04-26T23:29:18.828Z,4.73
2019-04-26T23:31:45.955Z,4.17
2019-04-26T23:34:14.378Z,4.60
2019-04-26T23:36:43.683Z,4.57
2019-04-26T23:39:13.261Z,4.60
2019-04-26T23:41:43.062Z,4.30
2019-04-26T23:44:13.240Z,4.23
2019-04-26T23:46:43.165Z,4.23
2019-04-26T23:49:11.709Z,4.47
2019-04-26T23:51:43.051Z,4.70
2019-04-26T23:54:10.083Z,4.60
2019-04-26T23:56:38.383Z,4.77
2019-04-26T23:59:06.773Z,4.13
